Список аэропортов
Фактическая погода:

21 августа, 07:00
Температура: +24°C (+24.0*)
Ветер: сев.-восточный 5 м/с
Давление: *757 мм
несуществ. обл.
Время (МСК)Темп. СВетерВлажностьДавлениеОблачностьОсадки
03:00+23СВ, 3 м/с71%1011 гПаясно
04:00+23СВ, 3 м/с68%1011 гПаясно
05:00+23СВ, 3 м/с67%1011 гПаясно
06:00+22СВ, 3 м/с66%1011 гПаясно
07:00+24СВ, 3 м/с62%1010 гПаясно
08:00+26СВ, 2 м/с56%1010 гПаясно
09:00+29В, 1 м/с49%1010 гПаясно
10:00+30Ю, 3 м/с43%1009 гПаясно
11:00+31Ю, 3 м/с42%1008 гПаясно
12:00+31ЮЗ, 3 м/с42%1008 гПаясно
13:00+32ЮЗ, 3 м/с43%1007 гПаясно
14:00+32З, 3 м/с46%1007 гПаясно
15:00+32З, 3 м/с46%1006 гПаясно
16:00+32З, 4 м/с46%1005 гПаясно
17:00+31СЗ, 4 м/с50%1005 гПаясно
18:00+30СЗ, 4 м/с53%1004 гПаясно
19:00+28СЗ, 3 м/с62%1004 гПаясно
20:00+27СЗ, 2 м/с71%1005 гПаясно
21:00+26С, 2 м/с76%1004 гПаясно
22:00+25СЗ, 2 м/с78%1005 гПаясно
23:00+24СВ, 2 м/с72%1005 гПаясно
22 августа
00:00+25СВ, 3 м/с61%1005 гПаясно
01:00+25СВ, 3 м/с56%1005 гПаясно
02:00+24СВ, 2 м/с61%1005 гПаясно
03:00+24В, 2 м/с66%1005 гПамалооблачно
04:00+26ЮВ, 4 м/с63%1005 гПамалооблачно
05:00+26ЮВ, 5 м/с56%1006 гПаясно
06:00+27ЮВ, 7 м/с55%1006 гПаясно
07:00+27ЮВ, 9 м/с61%1006 гПамалооблачно
08:00+28ЮВ, 8 м/с56%1007 гПаясно
09:00+29ЮВ, 8 м/с53%1007 гПамалооблачно
10:00+30ЮВ, 9 м/с49%1007 гПамалооблачно
11:00+30ЮВ, 9 м/с49%1006 гПамалооблачно
12:00+30Ю, 8 м/с54%1006 гПамалооблачно
13:00+30Ю, 8 м/с65%1007 гПас прояснениями
14:00+29Ю, 6 м/с69%1006 гПамалооблачносл. дождь
15:00+29Ю, 3 м/с70%1006 гПамалооблачнодождь
16:00+29ЮЗ, 1 м/с69%1006 гПамалооблачносл. дождь
17:00+29З, 1 м/с69%1006 гПамалооблачно
18:00+28З, 1 м/с72%1006 гПаясно
19:00+27З, 1 м/с77%1006 гПаясно
20:00+26Штиль 84%1007 гПаясно
21:00+25Штиль 87%1007 гПаясно
22:00+24Штиль 90%1008 гПаоблачносл. дождь
23:00+24В, 1 м/с91%1008 гПас прояснениями
23 августа
00:00+24В, 2 м/с93%1008 гПамалооблачно
01:00+24В, 2 м/с94%1008 гПамалооблачно
02:00+24В, 2 м/с94%1008 гПамалооблачно
03:00+23В, 2 м/с93%1008 гПаоблачнодождь